»·PEaware :: N915MM KBUR-KLAS

N915MM :: KBUR-KLAS

FLIGHT INFORMATION

Flight Status: Arrived
Operator: Privately registered:
United States
More flights under this callsign
Pilot: Tyler S. (27221)
Aircraft: SOCATA TBM-900
(TBM9)
More flights by this aircraft type
Origin: KBUR Bob Hope-Burbank
United States
Destination: KLAS McCarran Intl
United States
More flights between these airports :: More routes between these airports
Route: VNY3 DAG CRESO4
File this flight plan on PilotEdge
Remarks: I-5
Altitude:
(Current/Filed)
19,000ft
Speed:
(Current/Filed)
300kts
Departed: 27-Feb-20 06:05 PM
Arrived: 27-Feb-20 07:01 PM
Distance/Time
Traveled:
194nm/0:56
Distance/Time
To Go:
Arrived

Flight Plot

Page will automatically refresh every two minutes.

Flight plan parsing failed; only flown route is shown


Map Options




Map Legend


Flown Route
Filed Route
Departure Airport
Arrival Airport
Navaid (VOR, NDB)
Fix

Horizontal Profiles

Position Reports

Time Latitude Longitude Heading Altitude Ground
Speed
27-Feb-20 17:46 34.200314 -118.364528 178 779ft 0kts
27-Feb-20 17:47 34.200314 -118.364528 178 779ft 0kts
27-Feb-20 17:48 34.200314 -118.364528 178 779ft 0kts
27-Feb-20 17:49 34.200314 -118.364528 178 779ft 0kts
27-Feb-20 17:50 34.200314 -118.364528 178 779ft 0kts
27-Feb-20 17:51 34.200314 -118.364528 178 779ft 0kts
27-Feb-20 17:52 34.200314 -118.364528 178 779ft 0kts
27-Feb-20 17:52 34.200314 -118.364528 178 779ft 0kts
27-Feb-20 17:54 34.200314 -118.364528 178 779ft 0kts
27-Feb-20 17:55 34.200314 -118.364528 178 779ft 0kts
27-Feb-20 17:55 34.200314 -118.364528 178 779ft 0kts
27-Feb-20 17:57 34.200314 -118.364528 178 779ft 0kts
27-Feb-20 17:57 34.200314 -118.364528 178 779ft 0kts
27-Feb-20 17:58 34.200314 -118.364528 178 779ft 0kts
27-Feb-20 18:00 34.200313 -118.364528 178 779ft 0kts
27-Feb-20 18:00 34.199757 -118.364536 181 779ft 8kts
27-Feb-20 18:01 34.199132 -118.367712 271 779ft 10kts
27-Feb-20 18:02 34.198755 -118.368999 182 779ft 0kts
27-Feb-20 18:03 34.197909 -118.368805 91 779ft 9kts
27-Feb-20 18:04 34.192318 -118.332310 145 2094ft 143kts
27-Feb-20 18:05 34.159459 -118.354092 225 4025ft 170kts
27-Feb-20 18:06 34.170607 -118.396390 342 5527ft 160kts
27-Feb-20 18:07 34.209745 -118.413774 342 8381ft 151kts
27-Feb-20 18:08 34.249481 -118.414730 17 10888ft 152kts
27-Feb-20 18:09 34.290314 -118.398551 15 13559ft 159kts
27-Feb-20 18:10 34.333335 -118.381963 15 15994ft 169kts
27-Feb-20 18:11 34.378874 -118.364445 15 18313ft 177kts
27-Feb-20 18:12 34.432667 -118.343750 16 19034ft 243kts
27-Feb-20 18:13 34.490070 -118.290215 51 19008ft 286kts
27-Feb-20 18:14 34.538654 -118.212453 51 19184ft 293kts
27-Feb-20 18:15 34.588390 -118.132824 51 19183ft 297kts
27-Feb-20 18:16 34.633464 -118.049673 80 19158ft 300kts
27-Feb-20 18:17 34.644018 -117.948921 81 19183ft 300kts
27-Feb-20 18:18 34.654954 -117.848433 81 19183ft 300kts
27-Feb-20 18:19 34.668014 -117.748196 71 19182ft 299kts
27-Feb-20 18:20 34.692869 -117.651656 71 19183ft 300kts
27-Feb-20 18:21 34.717733 -117.554493 71 19183ft 300kts
27-Feb-20 18:22 34.742431 -117.457616 71 19196ft 300kts
27-Feb-20 18:23 34.767089 -117.360523 70 19213ft 300kts
27-Feb-20 18:24 34.791631 -117.263559 71 19228ft 300kts
27-Feb-20 18:25 34.816164 -117.166219 71 19245ft 300kts
27-Feb-20 18:26 34.840630 -117.068800 71 19269ft 300kts
27-Feb-20 18:27 34.865036 -116.971275 71 19290ft 301kts
27-Feb-20 18:28 34.889407 -116.873475 70 19292ft 302kts
27-Feb-20 18:29 34.913729 -116.775527 70 19293ft 302kts
27-Feb-20 18:30 34.937999 -116.677418 70 19292ft 302kts
27-Feb-20 18:31 34.962409 -116.579073 67 19289ft 302kts
27-Feb-20 18:32 35.001879 -116.489541 58 19293ft 300kts
27-Feb-20 18:33 35.041807 -116.399601 58 19293ft 300kts
27-Feb-20 18:34 35.081607 -116.309710 59 19290ft 300kts
27-Feb-20 18:35 35.121275 -116.219871 59 19293ft 300kts
27-Feb-20 18:36 35.161050 -116.129552 59 19292ft 300kts
27-Feb-20 18:37 35.200515 -116.039703 59 19285ft 300kts
27-Feb-20 18:38 35.240011 -115.949508 58 19279ft 300kts
27-Feb-20 18:39 35.277835 -115.862901 58 18977ft 258kts
27-Feb-20 18:40 35.310108 -115.789018 55 18460ft 244kts
27-Feb-20 18:41 35.356594 -115.725928 43 16999ft 254kts
27-Feb-20 18:42 35.403643 -115.663175 43 15539ft 246kts
27-Feb-20 18:43 35.448748 -115.602868 43 14179ft 224kts
27-Feb-20 18:44 35.488655 -115.549438 42 12936ft 205kts
27-Feb-20 18:45 35.523989 -115.502144 42 12058ft 192kts
27-Feb-20 18:46 35.565129 -115.446955 43 12044ft 234kts
27-Feb-20 18:47 35.610030 -115.386581 43 12028ft 242kts
27-Feb-20 18:48 35.655575 -115.325243 44 12026ft 243kts
27-Feb-20 18:49 35.701188 -115.263711 44 12026ft 243kts
27-Feb-20 18:50 35.746807 -115.202065 44 12026ft 243kts
27-Feb-20 18:51 35.792802 -115.141275 44 11738ft 237kts
27-Feb-20 18:52 35.848175 -115.106942 11 10409ft 228kts
27-Feb-20 18:53 35.910552 -115.090798 11 9104ft 230kts
27-Feb-20 18:54 35.973817 -115.077169 1 7800ft 231kts
27-Feb-20 18:55 36.038359 -115.075202 1 6498ft 232kts
27-Feb-20 18:56 36.100028 -115.073162 1 5178ft 208kts
27-Feb-20 18:57 36.132778 -115.100959 291 3872ft 122kts
27-Feb-20 18:58 36.135206 -115.136056 213 3265ft 113kts
27-Feb-20 18:59 36.110657 -115.150163 205 2740ft 87kts
27-Feb-20 19:00 36.090945 -115.161459 204 2184ft 38kts
27-Feb-20 19:01 36.089583 -115.163995 294 2184ft 8kts
27-Feb-20 19:02 36.093060 -115.162608 24 2184ft 20kts
27-Feb-20 19:03 36.097752 -115.160390 307 2184ft 14kts
27-Feb-20 19:04 36.098812 -115.161258 46 2184ft 0kts
27-Feb-20 19:05 36.098812 -115.161258 47 2184ft 0kts

Navigation Log

Ident Type
Flight plan parsing failed, navigation log unavailable